createdAt,value
2023-03-23T16:00:23.593Z,98340.98
2023-03-23T16:03:35.038Z,98340.44
2023-03-23T16:06:38.543Z,98342.05
2023-03-23T16:09:42.553Z,98341.77
2023-03-23T16:12:46.743Z,98346.84
2023-03-23T16:15:50.359Z,98351.44
2023-03-23T16:18:53.406Z,98355.45
2023-03-23T16:21:56.149Z,98348.63
2023-03-23T16:24:58.896Z,98352.00
2023-03-23T16:28:02.154Z,98350.02
2023-03-23T16:31:05.707Z,98344.05
2023-03-23T16:34:09.165Z,98357.35
2023-03-23T16:37:12.203Z,98359.41
2023-03-23T16:40:16.790Z,98357.16
2023-03-23T16:43:19.595Z,98364.00
2023-03-23T16:46:22.594Z,98365.95
2023-03-23T16:49:25.826Z,98367.64
2023-03-23T16:52:28.814Z,98361.00
2023-03-23T16:55:32.547Z,98362.02
2023-03-23T16:58:35.792Z,98364.52
2023-03-23T17:01:39.205Z,98367.67
2023-03-23T17:04:46.430Z,98370.41
2023-03-23T17:07:49.448Z,98367.90
2023-03-23T17:10:52.726Z,98368.60
2023-03-23T17:13:55.567Z,98379.15
2023-03-23T17:16:58.884Z,98384.09
2023-03-23T17:20:02.284Z,98380.98
2023-03-23T17:23:05.457Z,98383.27
2023-03-23T17:26:08.373Z,98381.88
2023-03-23T17:29:11.182Z,98387.97
2023-03-23T17:32:14.714Z,98390.42
2023-03-23T17:35:17.564Z,98392.38
2023-03-23T17:38:20.500Z,98397.44
2023-03-23T17:41:23.208Z,98406.60
2023-03-23T17:44:26.549Z,98409.10
2023-03-23T17:47:29.418Z,98411.29
2023-03-23T17:50:32.306Z,98415.83
2023-03-23T17:53:36.551Z,98412.80
2023-03-23T17:56:39.646Z,98412.77
2023-03-23T17:59:43.210Z,98414.30
2023-03-23T18:02:46.030Z,98414.08
2023-03-23T18:05:51.046Z,98407.92
2023-03-23T18:08:53.801Z,98405.13
2023-03-23T18:11:57.027Z,98408.70
2023-03-23T18:15:00.150Z,98418.61
2023-03-23T18:18:06.753Z,98423.23
2023-03-23T18:21:10.967Z,98431.15
2023-03-23T18:24:14.347Z,98427.75
2023-03-23T18:27:17.631Z,98425.52
2023-03-23T18:30:21.002Z,98422.97
2023-03-23T18:33:25.838Z,98428.40
2023-03-23T18:36:28.965Z,98437.95
2023-03-23T18:39:34.261Z,98428.69
2023-03-23T18:42:42.194Z,98440.65
2023-03-23T18:45:53.453Z,98436.23
2023-03-23T18:48:56.403Z,98431.83
2023-03-23T18:52:00.383Z,98435.20
2023-03-23T18:55:04.023Z,98435.36
2023-03-23T18:58:06.797Z,98430.91
2023-03-23T19:01:12.905Z,98438.87
2023-03-23T19:04:16.069Z,98442.54
2023-03-23T19:07:19.857Z,98440.19
2023-03-23T19:10:23.989Z,98439.36
2023-03-23T19:13:29.156Z,98433.46
2023-03-23T19:16:35.804Z,98437.88
2023-03-23T19:19:39.068Z,98442.50
2023-03-23T19:22:41.922Z,98440.77
2023-03-23T19:25:45.680Z,98438.65
2023-03-23T19:31:55.946Z,98444.95
2023-03-23T19:34:59.205Z,98444.21
2023-03-23T19:38:02.200Z,98440.77
2023-03-23T19:41:06.275Z,98431.84
2023-03-23T19:44:09.513Z,98431.05
2023-03-23T19:47:12.764Z,98429.99
2023-03-23T19:50:16.588Z,98430.44
2023-03-23T19:53:20.203Z,98438.40
2023-03-23T19:56:24.001Z,98445.55
2023-03-23T19:59:26.883Z,98446.05
2023-03-23T20:02:29.644Z,98434.77
2023-03-23T20:05:35.154Z,98443.41
2023-03-23T20:08:43.315Z,98447.67
2023-03-23T20:11:46.551Z,98437.40
2023-03-23T20:14:49.503Z,98429.52
2023-03-23T20:17:53.098Z,98435.32
2023-03-23T20:21:11.307Z,98430.96
2023-03-23T20:24:14.232Z,98433.45
2023-03-23T20:27:17.774Z,98429.21
2023-03-23T20:30:20.655Z,98428.93
2023-03-23T20:33:23.559Z,98420.48
2023-03-23T20:36:29.852Z,98422.42
2023-03-23T20:39:33.678Z,98422.06
2023-03-23T20:42:37.038Z,98423.62
2023-03-23T20:45:39.766Z,98424.48
2023-03-23T20:48:42.773Z,98427.33
2023-03-23T20:51:46.655Z,98439.39
2023-03-23T20:54:50.817Z,98437.88
2023-03-23T20:57:53.588Z,98439.98
2023-03-23T21:00:58.160Z,98442.45
2023-03-23T21:04:03.195Z,98447.79
2023-03-23T21:07:06.292Z,98448.63
2023-03-23T21:10:09.168Z,98447.42
2023-03-23T21:13:13.199Z,98448.21
2023-03-23T21:16:16.065Z,98445.25
2023-03-23T21:19:19.759Z,98449.55
2023-03-23T21:22:23.280Z,98450.26
2023-03-23T21:25:34.828Z,98452.81
2023-03-23T21:28:38.235Z,98445.73
2023-03-23T21:31:41.647Z,98441.54
2023-03-23T21:34:46.662Z,98442.60
2023-03-23T21:37:49.979Z,98438.63
2023-03-23T21:40:54.576Z,98444.70
2023-03-23T21:43:57.896Z,98442.05
2023-03-23T21:47:02.096Z,98443.70
2023-03-23T21:50:07.108Z,98448.24
2023-03-23T21:53:12.901Z,98453.10
2023-03-23T21:56:16.609Z,98454.30
2023-03-23T21:59:19.351Z,98455.95
2023-03-23T22:02:22.520Z,98454.95
2023-03-23T22:05:25.346Z,98448.08
2023-03-23T22:08:29.720Z,98450.05
2023-03-23T22:11:32.850Z,98454.39
2023-03-23T22:14:35.645Z,98454.95
2023-03-23T22:17:39.889Z,98452.52
2023-03-23T22:20:43.546Z,98450.65
2023-03-23T22:23:46.784Z,98452.21
2023-03-23T22:26:49.844Z,98451.76
2023-03-23T22:29:52.657Z,98442.91
2023-03-23T22:32:57.705Z,98444.47
2023-03-23T22:36:06.261Z,98446.44
2023-03-23T22:39:09.816Z,98441.91
2023-03-23T22:42:13.521Z,98446.77
2023-03-23T22:45:16.783Z,98448.66
2023-03-23T22:48:25.284Z,98451.41
2023-03-23T22:51:28.558Z,98450.89
2023-03-23T22:54:31.392Z,98451.26
2023-03-23T22:57:35.834Z,98458.72
2023-03-23T23:00:40.268Z,98460.78
2023-03-23T23:03:43.408Z,98463.15
2023-03-23T23:06:46.238Z,98459.13
2023-03-23T23:09:48.981Z,98467.80
2023-03-23T23:12:54.003Z,98476.39
2023-03-23T23:15:58.556Z,98479.49
2023-03-23T23:19:01.308Z,98477.85
2023-03-23T23:22:18.366Z,98475.93
2023-03-23T23:25:22.513Z,98477.40
2023-03-23T23:28:25.546Z,98481.30
2023-03-23T23:31:33.615Z,98483.84
2023-03-23T23:34:36.905Z,98487.83
2023-03-23T23:37:39.692Z,98493.12
2023-03-23T23:40:44.539Z,98489.73
2023-03-23T23:43:47.521Z,98486.12
2023-03-23T23:46:50.350Z,98481.70
2023-03-23T23:49:53.168Z,98480.73
2023-03-23T23:52:56.342Z,98480.51
2023-03-23T23:56:03.877Z,98478.50
2023-03-23T23:59:06.793Z,98480.64
